sensor_id;sensor_type;location;lat;lon;timestamp;pressure;altitude;pressure_sealevel;temperature;humidity
72612;BME280;60655;52.182;4.474;2023-03-01T00:01:18;103358.16;;;2.84;80.36
72612;BME280;60655;52.182;4.474;2023-03-01T00:03:19;103337.97;;;2.72;80.83
72612;BME280;60655;52.182;4.474;2023-03-01T00:05:20;103346.53;;;2.61;80.49
72612;BME280;60655;52.182;4.474;2023-03-01T00:07:21;103342.38;;;2.71;81.23
72612;BME280;60655;52.182;4.474;2023-03-01T00:09:22;103337.81;;;2.61;81.49
72612;BME280;60655;52.182;4.474;2023-03-01T00:11:26;103345.63;;;2.75;82.53
72612;BME280;60655;52.182;4.474;2023-03-01T00:13:28;103340.28;;;2.77;82.64
72612;BME280;60655;52.182;4.474;2023-03-01T00:15:29;103335.66;;;2.80;82.03
72612;BME280;60655;52.182;4.474;2023-03-01T00:17:30;103338.63;;;2.88;81.64
72612;BME280;60655;52.182;4.474;2023-03-01T00:19:31;103327.69;;;2.82;81.99
72612;BME280;60655;52.182;4.474;2023-03-01T00:21:33;103332.19;;;2.80;81.45
72612;BME280;60655;52.182;4.474;2023-03-01T00:23:36;103336.59;;;2.66;81.65
72612;BME280;60655;52.182;4.474;2023-03-01T00:25:41;103333.16;;;2.79;81.76
72612;BME280;60655;52.182;4.474;2023-03-01T00:27:42;103336.00;;;2.88;82.02
72612;BME280;60655;52.182;4.474;2023-03-01T00:29:43;103319.91;;;2.67;81.46
72612;BME280;60655;52.182;4.474;2023-03-01T00:31:44;103325.28;;;2.79;82.05
72612;BME280;60655;52.182;4.474;2023-03-01T00:33:45;103329.28;;;2.84;82.45
72612;BME280;60655;52.182;4.474;2023-03-01T00:35:46;103318.34;;;2.78;82.38
72612;BME280;60655;52.182;4.474;2023-03-01T00:37:47;103311.28;;;2.65;82.11
72612;BME280;60655;52.182;4.474;2023-03-01T00:39:48;103319.19;;;2.78;82.51
72612;BME280;60655;52.182;4.474;2023-03-01T00:41:49;103313.50;;;2.71;81.66
72612;BME280;60655;52.182;4.474;2023-03-01T00:43:51;103320.97;;;2.78;81.75
72612;BME280;60655;52.182;4.474;2023-03-01T00:45:52;103318.66;;;2.73;81.98
72612;BME280;60655;52.182;4.474;2023-03-01T00:47:53;103322.66;;;2.79;82.07
72612;BME280;60655;52.182;4.474;2023-03-01T00:49:54;103319.06;;;2.67;82.15
72612;BME280;60655;52.182;4.474;2023-03-01T00:51:55;103328.06;;;2.63;82.68
72612;BME280;60655;52.182;4.474;2023-03-01T00:53:58;103323.69;;;2.76;82.55
72612;BME280;60655;52.182;4.474;2023-03-01T00:56:00;103308.56;;;2.54;82.13
72612;BME280;60655;52.182;4.474;2023-03-01T00:58:01;103317.69;;;2.49;82.62
72612;BME280;60655;52.182;4.474;2023-03-01T01:00:04;103317.22;;;2.42;84.07
72612;BME280;60655;52.182;4.474;2023-03-01T01:02:06;103315.06;;;2.61;83.32
72612;BME280;60655;52.182;4.474;2023-03-01T01:04:10;103321.94;;;2.37;82.82
72612;BME280;60655;52.182;4.474;2023-03-01T01:06:32;103310.34;;;2.54;83.91
72612;BME280;60655;52.182;4.474;2023-03-01T01:08:33;103308.66;;;2.53;83.40
72612;BME280;60655;52.182;4.474;2023-03-01T01:10:34;103308.75;;;2.51;83.10
72612;BME280;60655;52.182;4.474;2023-03-01T01:12:35;103312.94;;;2.41;83.41
72612;BME280;60655;52.182;4.474;2023-03-01T01:14:38;103315.06;;;2.49;83.55
72612;BME280;60655;52.182;4.474;2023-03-01T01:16:39;103305.09;;;2.54;83.05
72612;BME280;60655;52.182;4.474;2023-03-01T01:18:40;103301.28;;;2.45;83.69
72612;BME280;60655;52.182;4.474;2023-03-01T01:20:41;103306.34;;;2.48;83.46
72612;BME280;60655;52.182;4.474;2023-03-01T01:22:42;103308.72;;;2.38;83.52
72612;BME280;60655;52.182;4.474;2023-03-01T01:24:43;103310.50;;;2.38;83.75
72612;BME280;60655;52.182;4.474;2023-03-01T01:26:44;103304.94;;;2.30;83.63
72612;BME280;60655;52.182;4.474;2023-03-01T01:28:46;103307.03;;;2.25;83.55
72612;BME280;60655;52.182;4.474;2023-03-01T01:30:47;103290.47;;;2.37;83.75
72612;BME280;60655;52.182;4.474;2023-03-01T01:32:48;103290.00;;;2.18;83.49
72612;BME280;60655;52.182;4.474;2023-03-01T01:34:49;103286.06;;;2.25;83.49
72612;BME280;60655;52.182;4.474;2023-03-01T01:36:52;103268.94;;;2.19;83.84
72612;BME280;60655;52.182;4.474;2023-03-01T01:38:56;103275.91;;;2.06;83.85
72612;BME280;60655;52.182;4.474;2023-03-01T01:40:57;103279.25;;;1.95;83.86
72612;BME280;60655;52.182;4.474;2023-03-01T01:42:58;103278.13;;;1.99;84.77
72612;BME280;60655;52.182;4.474;2023-03-01T01:45:26;103275.13;;;2.18;84.21
72612;BME280;60655;52.182;4.474;2023-03-01T01:47:27;103265.06;;;2.25;84.38
72612;BME280;60655;52.182;4.474;2023-03-01T01:51:40;103261.09;;;1.92;84.51
72612;BME280;60655;52.182;4.474;2023-03-01T01:53:46;103261.56;;;1.99;85.74
72612;BME280;60655;52.182;4.474;2023-03-01T01:55:56;103257.84;;;1.89;85.69
72612;BME280;60655;52.182;4.474;2023-03-01T01:58:02;103250.13;;;2.00;84.59
72612;BME280;60655;52.182;4.474;2023-03-01T02:00:14;103258.09;;;1.98;84.57
72612;BME280;60655;52.182;4.474;2023-03-01T02:02:16;103259.13;;;1.96;83.98
72612;BME280;60655;52.182;4.474;2023-03-01T02:04:17;103259.53;;;2.02;84.53
72612;BME280;60655;52.182;4.474;2023-03-01T02:06:22;103258.44;;;1.80;83.95
72612;BME280;60655;52.182;4.474;2023-03-01T02:08:31;103251.09;;;1.72;84.10
72612;BME280;60655;52.182;4.474;2023-03-01T02:10:34;103258.63;;;1.77;83.59
72612;BME280;60655;52.182;4.474;2023-03-01T02:12:36;103258.53;;;1.78;84.29
72612;BME280;60655;52.182;4.474;2023-03-01T02:14:39;103256.81;;;1.64;84.71
72612;BME280;60655;52.182;4.474;2023-03-01T02:16:40;103255.88;;;1.65;84.37
72612;BME280;60655;52.182;4.474;2023-03-01T02:18:43;103259.13;;;1.69;85.11
72612;BME280;60655;52.182;4.474;2023-03-01T02:23:14;103256.94;;;1.76;84.42
72612;BME280;60655;52.182;4.474;2023-03-01T02:30:18;103249.13;;;1.61;84.92
72612;BME280;60655;52.182;4.474;2023-03-01T02:32:19;103252.59;;;1.62;84.93
72612;BME280;60655;52.182;4.474;2023-03-01T02:34:26;103252.22;;;1.68;84.69
72612;BME280;60655;52.182;4.474;2023-03-01T02:36:31;103241.84;;;1.66;84.73
72612;BME280;60655;52.182;4.474;2023-03-01T02:38:34;103237.75;;;1.75;84.33
72612;BME280;60655;52.182;4.474;2023-03-01T02:40:35;103236.53;;;1.54;83.88
72612;BME280;60655;52.182;4.474;2023-03-01T02:42:58;103238.28;;;1.67;84.72
72612;BME280;60655;52.182;4.474;2023-03-01T02:44:59;103237.63;;;1.64;85.19
72612;BME280;60655;52.182;4.474;2023-03-01T02:47:02;103237.47;;;1.80;85.12
72612;BME280;60655;52.182;4.474;2023-03-01T02:49:21;103242.47;;;1.70;83.81
72612;BME280;60655;52.182;4.474;2023-03-01T02:56:03;103239.84;;;1.70;84.60
72612;BME280;60655;52.182;4.474;2023-03-01T02:58:04;103229.03;;;1.62;84.97
72612;BME280;60655;52.182;4.474;2023-03-01T03:00:11;103233.91;;;1.54;85.07
72612;BME280;60655;52.182;4.474;2023-03-01T03:02:26;103227.38;;;1.47;85.84
72612;BME280;60655;52.182;4.474;2023-03-01T03:04:38;103223.69;;;1.37;85.49
72612;BME280;60655;52.182;4.474;2023-03-01T03:06:39;103224.75;;;1.47;85.60
72612;BME280;60655;52.182;4.474;2023-03-01T03:08:40;103219.59;;;1.59;84.92
72612;BME280;60655;52.182;4.474;2023-03-01T03:10:42;103208.00;;;1.49;85.76
72612;BME280;60655;52.182;4.474;2023-03-01T03:12:50;103214.81;;;1.52;84.96
72612;BME280;60655;52.182;4.474;2023-03-01T03:14:52;103209.19;;;1.58;84.29
72612;BME280;60655;52.182;4.474;2023-03-01T03:16:53;103211.31;;;1.39;84.92
72612;BME280;60655;52.182;4.474;2023-03-01T03:18:54;103210.19;;;1.43;85.08
72612;BME280;60655;52.182;4.474;2023-03-01T03:20:55;103210.72;;;1.48;84.75
72612;BME280;60655;52.182;4.474;2023-03-01T03:22:57;103209.41;;;1.55;84.77
72612;BME280;60655;52.182;4.474;2023-03-01T03:25:01;103206.09;;;1.65;85.05
72612;BME280;60655;52.182;4.474;2023-03-01T03:27:02;103203.13;;;1.57;84.94
72612;BME280;60655;52.182;4.474;2023-03-01T03:29:03;103193.19;;;1.62;84.25
72612;BME280;60655;52.182;4.474;2023-03-01T03:31:06;103197.69;;;1.60;84.78
72612;BME280;60655;52.182;4.474;2023-03-01T03:33:09;103202.75;;;1.49;84.71
72612;BME280;60655;52.182;4.474;2023-03-01T03:35:10;103208.19;;;1.46;84.74
72612;BME280;60655;52.182;4.474;2023-03-01T03:37:11;103199.47;;;1.60;84.87
72612;BME280;60655;52.182;4.474;2023-03-01T03:39:32;103179.72;;;1.42;84.45
72612;BME280;60655;52.182;4.474;2023-03-01T03:41:35;103191.69;;;1.58;84.54
72612;BME280;60655;52.182;4.474;2023-03-01T03:43:38;103155.50;;;1.11;84.39
72612;BME280;60655;52.182;4.474;2023-03-01T03:45:39;103201.72;;;1.52;84.90
72612;BME280;60655;52.182;4.474;2023-03-01T03:47:41;103195.16;;;1.32;84.24
72612;BME280;60655;52.182;4.474;2023-03-01T03:49:42;103198.34;;;1.37;85.14
72612;BME280;60655;52.182;4.474;2023-03-01T03:51:45;103196.19;;;1.29;84.90
72612;BME280;60655;52.182;4.474;2023-03-01T03:53:46;103194.31;;;1.31;84.87
72612;BME280;60655;52.182;4.474;2023-03-01T03:55:47;103193.22;;;1.21;84.74
72612;BME280;60655;52.182;4.474;2023-03-01T03:57:49;103191.66;;;1.05;85.80
72612;BME280;60655;52.182;4.474;2023-03-01T03:59:54;103184.63;;;1.19;84.55
72612;BME280;60655;52.182;4.474;2023-03-01T04:01:55;103191.34;;;1.23;85.32
72612;BME280;60655;52.182;4.474;2023-03-01T04:03:56;103181.91;;;1.21;84.70
72612;BME280;60655;52.182;4.474;2023-03-01T04:06:03;103187.97;;;1.21;84.63
72612;BME280;60655;52.182;4.474;2023-03-01T04:08:05;103189.38;;;1.27;85.08
72612;BME280;60655;52.182;4.474;2023-03-01T04:10:14;103184.81;;;1.16;85.40
72612;BME280;60655;52.182;4.474;2023-03-01T04:12:16;103196.75;;;1.20;85.32
72612;BME280;60655;52.182;4.474;2023-03-01T04:14:21;103194.25;;;1.19;84.07
72612;BME280;60655;52.182;4.474;2023-03-01T04:16:22;103183.59;;;1.22;84.01
72612;BME280;60655;52.182;4.474;2023-03-01T04:18:24;103194.81;;;1.24;84.93
72612;BME280;60655;52.182;4.474;2023-03-01T04:20:28;103192.38;;;1.21;85.12
72612;BME280;60655;52.182;4.474;2023-03-01T04:22:29;103188.44;;;1.28;85.13
72612;BME280;60655;52.182;4.474;2023-03-01T04:24:33;103180.88;;;1.23;85.21
72612;BME280;60655;52.182;4.474;2023-03-01T04:26:34;103185.91;;;1.26;85.05
72612;BME280;60655;52.182;4.474;2023-03-01T04:28:37;103177.31;;;1.24;84.04
72612;BME280;60655;52.182;4.474;2023-03-01T04:30:40;103183.63;;;1.08;85.13
72612;BME280;60655;52.182;4.474;2023-03-01T04:32:42;103182.34;;;1.27;85.11
72612;BME280;60655;52.182;4.474;2023-03-01T04:34:43;103182.69;;;1.09;84.95
72612;BME280;60655;52.182;4.474;2023-03-01T04:36:44;103185.53;;;1.18;84.88
72612;BME280;60655;52.182;4.474;2023-03-01T04:38:45;103183.25;;;0.99;85.23
72612;BME280;60655;52.182;4.474;2023-03-01T04:40:49;103176.44;;;1.11;85.48
72612;BME280;60655;52.182;4.474;2023-03-01T04:42:50;103174.97;;;1.20;85.78
72612;BME280;60655;52.182;4.474;2023-03-01T04:44:51;103170.25;;;1.12;85.71
72612;BME280;60655;52.182;4.474;2023-03-01T04:46:52;103158.28;;;1.08;86.27
72612;BME280;60655;52.182;4.474;2023-03-01T04:48:53;103171.53;;;1.19;85.64
72612;BME280;60655;52.182;4.474;2023-03-01T04:50:54;103169.56;;;1.23;86.10
72612;BME280;60655;52.182;4.474;2023-03-01T04:52:55;103166.19;;;1.21;85.21
72612;BME280;60655;52.182;4.474;2023-03-01T04:54:59;103159.63;;;1.01;84.81
72612;BME280;60655;52.182;4.474;2023-03-01T04:57:00;103156.38;;;0.83;85.29
72612;BME280;60655;52.182;4.474;2023-03-01T04:59:02;103156.44;;;0.96;85.90
72612;BME280;60655;52.182;4.474;2023-03-01T05:01:17;103150.34;;;1.10;86.61
72612;BME280;60655;52.182;4.474;2023-03-01T05:03:20;103136.47;;;1.22;86.12
72612;BME280;60655;52.182;4.474;2023-03-01T05:07:26;103161.19;;;1.04;85.38
72612;BME280;60655;52.182;4.474;2023-03-01T05:09:27;103158.59;;;1.04;86.05
72612;BME280;60655;52.182;4.474;2023-03-01T05:11:28;103165.97;;;0.97;87.04
72612;BME280;60655;52.182;4.474;2023-03-01T05:13:38;103167.19;;;0.91;87.66
72612;BME280;60655;52.182;4.474;2023-03-01T05:15:39;103160.94;;;0.94;88.74
72612;BME280;60655;52.182;4.474;2023-03-01T05:17:40;103165.22;;;1.09;89.04
72612;BME280;60655;52.182;4.474;2023-03-01T05:19:41;103156.47;;;1.23;88.44
72612;BME280;60655;52.182;4.474;2023-03-01T05:21:43;103164.22;;;1.24;88.11
72612;BME280;60655;52.182;4.474;2023-03-01T05:24:10;103149.16;;;1.01;89.08
72612;BME280;60655;52.182;4.474;2023-03-01T05:26:12;103137.28;;;0.95;89.86
72612;BME280;60655;52.182;4.474;2023-03-01T05:28:13;103131.63;;;0.75;90.68
72612;BME280;60655;52.182;4.474;2023-03-01T05:30:15;103138.53;;;1.17;91.08
72612;BME280;60655;52.182;4.474;2023-03-01T05:32:16;103126.75;;;0.83;90.51
72612;BME280;60655;52.182;4.474;2023-03-01T05:34:17;103133.88;;;0.81;92.02
72612;BME280;60655;52.182;4.474;2023-03-01T05:36:18;103136.41;;;1.09;91.40
72612;BME280;60655;52.182;4.474;2023-03-01T05:38:20;103132.88;;;1.10;91.13
72612;BME280;60655;52.182;4.474;2023-03-01T05:40:23;103111.94;;;0.96;91.24
72612;BME280;60655;52.182;4.474;2023-03-01T05:42:24;103110.19;;;0.96;91.53
72612;BME280;60655;52.182;4.474;2023-03-01T05:44:27;103122.28;;;0.85;91.04
72612;BME280;60655;52.182;4.474;2023-03-01T05:46:28;103123.78;;;0.75;91.91
72612;BME280;60655;52.182;4.474;2023-03-01T05:48:29;103122.88;;;1.02;91.39
72612;BME280;60655;52.182;4.474;2023-03-01T05:50:36;103109.91;;;0.87;91.05
72612;BME280;60655;52.182;4.474;2023-03-01T05:52:37;103115.38;;;0.84;90.47
72612;BME280;60655;52.182;4.474;2023-03-01T05:54:38;103109.66;;;0.77;90.45
72612;BME280;60655;52.182;4.474;2023-03-01T05:56:39;103110.50;;;0.78;89.68
72612;BME280;60655;52.182;4.474;2023-03-01T05:58:40;103110.75;;;0.87;89.87
72612;BME280;60655;52.182;4.474;2023-03-01T06:00:42;103101.00;;;1.04;89.04
72612;BME280;60655;52.182;4.474;2023-03-01T06:02:44;103107.63;;;1.09;89.28
72612;BME280;60655;52.182;4.474;2023-03-01T06:04:45;103110.81;;;1.00;88.63
72612;BME280;60655;52.182;4.474;2023-03-01T06:06:46;103101.69;;;0.93;88.63
72612;BME280;60655;52.182;4.474;2023-03-01T06:08:47;103106.59;;;0.71;88.29
72612;BME280;60655;52.182;4.474;2023-03-01T06:10:48;103105.09;;;0.66;89.17
72612;BME280;60655;52.182;4.474;2023-03-01T06:12:49;103109.44;;;0.53;89.74
72612;BME280;60655;52.182;4.474;2023-03-01T06:14:50;103110.13;;;0.70;89.99
72612;BME280;60655;52.182;4.474;2023-03-01T06:16:51;103106.22;;;0.62;89.36
72612;BME280;60655;52.182;4.474;2023-03-01T06:18:51;103099.50;;;0.58;89.34
72612;BME280;60655;52.182;4.474;2023-03-01T06:20:53;103111.81;;;0.71;89.28
72612;BME280;60655;52.182;4.474;2023-03-01T06:22:55;103108.72;;;0.78;88.35
72612;BME280;60655;52.182;4.474;2023-03-01T06:24:56;103111.59;;;0.88;88.79
72612;BME280;60655;52.182;4.474;2023-03-01T06:26:57;103109.19;;;0.85;88.31
72612;BME280;60655;52.182;4.474;2023-03-01T06:28:57;103108.78;;;0.91;88.77
72612;BME280;60655;52.182;4.474;2023-03-01T06:30:58;103111.91;;;0.83;88.59
72612;BME280;60655;52.182;4.474;2023-03-01T06:32:59;103116.31;;;0.83;88.56
72612;BME280;60655;52.182;4.474;2023-03-01T06:35:04;103111.59;;;0.88;88.43
72612;BME280;60655;52.182;4.474;2023-03-01T06:37:06;103094.66;;;0.93;88.12
72612;BME280;60655;52.182;4.474;2023-03-01T06:39:07;103100.88;;;0.78;88.11
72612;BME280;60655;52.182;4.474;2023-03-01T06:41:08;103096.94;;;0.85;87.97
72612;BME280;60655;52.182;4.474;2023-03-01T06:43:09;103108.59;;;0.94;88.42
72612;BME280;60655;52.182;4.474;2023-03-01T06:45:10;103109.34;;;0.96;88.26
72612;BME280;60655;52.182;4.474;2023-03-01T06:47:12;103108.19;;;0.73;87.78
72612;BME280;60655;52.182;4.474;2023-03-01T06:49:13;103104.53;;;0.76;89.11
72612;BME280;60655;52.182;4.474;2023-03-01T06:51:14;103110.78;;;0.73;88.35
72612;BME280;60655;52.182;4.474;2023-03-01T06:53:15;103108.44;;;0.83;87.99
72612;BME280;60655;52.182;4.474;2023-03-01T06:55:16;103111.50;;;0.89;87.29
72612;BME280;60655;52.182;4.474;2023-03-01T06:57:17;103114.91;;;0.77;87.23
72612;BME280;60655;52.182;4.474;2023-03-01T06:59:18;103109.38;;;0.82;87.29
72612;BME280;60655;52.182;4.474;2023-03-01T07:01:19;103123.97;;;0.86;86.57
72612;BME280;60655;52.182;4.474;2023-03-01T07:03:20;103117.22;;;0.82;86.84
72612;BME280;60655;52.182;4.474;2023-03-01T07:05:21;103121.16;;;0.75;87.28
72612;BME280;60655;52.182;4.474;2023-03-01T07:07:22;103120.69;;;0.82;86.77
72612;BME280;60655;52.182;4.474;2023-03-01T07:09:23;103119.84;;;0.67;87.92
72612;BME280;60655;52.182;4.474;2023-03-01T07:11:24;103118.16;;;0.66;87.59
72612;BME280;60655;52.182;4.474;2023-03-01T07:13:25;103106.69;;;0.69;88.12
72612;BME280;60655;52.182;4.474;2023-03-01T07:15:27;103104.69;;;0.87;86.93
72612;BME280;60655;52.182;4.474;2023-03-01T07:17:28;103116.34;;;0.95;87.00
72612;BME280;60655;52.182;4.474;2023-03-01T07:19:29;103114.53;;;1.10;87.27
72612;BME280;60655;52.182;4.474;2023-03-01T07:21:30;103120.16;;;1.04;86.67
72612;BME280;60655;52.182;4.474;2023-03-01T07:23:31;103109.63;;;0.91;86.87
72612;BME280;60655;52.182;4.474;2023-03-01T07:25:32;103122.81;;;0.90;87.99
72612;BME280;60655;52.182;4.474;2023-03-01T07:27:33;103126.72;;;0.97;87.57
72612;BME280;60655;52.182;4.474;2023-03-01T07:29:34;103124.66;;;1.02;88.51
72612;BME280;60655;52.182;4.474;2023-03-01T07:31:37;103103.44;;;0.92;87.79
72612;BME280;60655;52.182;4.474;2023-03-01T07:33:38;103121.28;;;1.00;87.53
72612;BME280;60655;52.182;4.474;2023-03-01T07:35:39;103109.16;;;0.99;87.88
72612;BME280;60655;52.182;4.474;2023-03-01T07:37:40;103114.03;;;1.18;87.70
72612;BME280;60655;52.182;4.474;2023-03-01T07:39:41;103123.66;;;1.17;88.08
72612;BME280;60655;52.182;4.474;2023-03-01T07:41:41;103117.91;;;1.39;88.25
72612;BME280;60655;52.182;4.474;2023-03-01T07:43:43;103118.22;;;1.47;87.99
72612;BME280;60655;52.182;4.474;2023-03-01T07:45:44;103113.66;;;1.63;88.07
72612;BME280;60655;52.182;4.474;2023-03-01T07:47:45;103119.84;;;1.75;87.61
72612;BME280;60655;52.182;4.474;2023-03-01T07:49:46;103114.59;;;1.75;87.27
72612;BME280;60655;52.182;4.474;2023-03-01T07:51:47;103110.84;;;1.79;86.89
72612;BME280;60655;52.182;4.474;2023-03-01T07:53:48;103110.00;;;1.79;87.45
72612;BME280;60655;52.182;4.474;2023-03-01T07:55:49;103113.81;;;2.00;87.44
72612;BME280;60655;52.182;4.474;2023-03-01T07:57:50;103119.03;;;2.13;87.24
72612;BME280;60655;52.182;4.474;2023-03-01T07:59:51;103117.69;;;2.07;87.71
72612;BME280;60655;52.182;4.474;2023-03-01T08:01:52;103119.34;;;2.08;88.35
72612;BME280;60655;52.182;4.474;2023-03-01T08:03:53;103106.88;;;2.24;88.60
72612;BME280;60655;52.182;4.474;2023-03-01T08:05:54;103100.50;;;2.28;88.04
72612;BME280;60655;52.182;4.474;2023-03-01T08:07:55;103109.38;;;2.38;88.50
72612;BME280;60655;52.182;4.474;2023-03-01T08:09:56;103116.41;;;2.38;88.14
72612;BME280;60655;52.182;4.474;2023-03-01T08:11:57;103102.56;;;2.49;88.40
72612;BME280;60655;52.182;4.474;2023-03-01T08:14:00;103106.69;;;2.77;88.64
72612;BME280;60655;52.182;4.474;2023-03-01T08:16:06;103105.69;;;2.90;88.57
72612;BME280;60655;52.182;4.474;2023-03-01T08:18:07;103097.38;;;2.96;89.02
72612;BME280;60655;52.182;4.474;2023-03-01T08:20:09;103093.19;;;2.94;88.91
72612;BME280;60655;52.182;4.474;2023-03-01T08:22:12;103098.56;;;3.16;89.08
72612;BME280;60655;52.182;4.474;2023-03-01T08:24:13;103095.97;;;3.27;89.03
72612;BME280;60655;52.182;4.474;2023-03-01T08:26:17;103092.63;;;3.25;89.66
72612;BME280;60655;52.182;4.474;2023-03-01T08:28:19;103092.47;;;3.39;89.68
72612;BME280;60655;52.182;4.474;2023-03-01T08:30:20;103089.19;;;3.60;89.29
72612;BME280;60655;52.182;4.474;2023-03-01T08:32:21;103083.81;;;3.61;89.22
72612;BME280;60655;52.182;4.474;2023-03-01T08:34:22;103089.94;;;3.73;88.96
72612;BME280;60655;52.182;4.474;2023-03-01T08:36:25;103084.69;;;3.73;89.25
72612;BME280;60655;52.182;4.474;2023-03-01T08:38:26;103087.31;;;3.84;89.12
72612;BME280;60655;52.182;4.474;2023-03-01T08:40:27;103080.38;;;3.83;88.96
72612;BME280;60655;52.182;4.474;2023-03-01T08:42:28;103081.97;;;3.97;89.22
72612;BME280;60655;52.182;4.474;2023-03-01T08:44:29;103083.28;;;4.14;88.92
72612;BME280;60655;52.182;4.474;2023-03-01T08:46:37;103081.50;;;4.03;88.50
72612;BME280;60655;52.182;4.474;2023-03-01T08:48:39;103083.78;;;4.19;88.39
72612;BME280;60655;52.182;4.474;2023-03-01T08:50:43;103087.59;;;4.15;87.70
72612;BME280;60655;52.182;4.474;2023-03-01T08:52:44;103079.94;;;4.12;87.81
72612;BME280;60655;52.182;4.474;2023-03-01T08:54:47;103085.94;;;4.02;87.75
72612;BME280;60655;52.182;4.474;2023-03-01T08:56:48;103088.78;;;4.11;87.62
72612;BME280;60655;52.182;4.474;2023-03-01T08:58:49;103095.50;;;4.15;87.59
72612;BME280;60655;52.182;4.474;2023-03-01T09:00:50;103095.50;;;4.15;87.72
72612;BME280;60655;52.182;4.474;2023-03-01T09:02:51;103090.00;;;4.18;87.58
72612;BME280;60655;52.182;4.474;2023-03-01T09:04:52;103089.06;;;4.30;87.82
72612;BME280;60655;52.182;4.474;2023-03-01T09:06:53;103088.22;;;4.29;87.23
72612;BME280;60655;52.182;4.474;2023-03-01T09:08:54;103093.47;;;4.29;87.43
72612;BME280;60655;52.182;4.474;2023-03-01T09:10:55;103082.00;;;4.30;87.15
72612;BME280;60655;52.182;4.474;2023-03-01T09:12:56;103099.81;;;4.27;86.59
72612;BME280;60655;52.182;4.474;2023-03-01T09:14:57;103095.59;;;4.35;86.74
72612;BME280;60655;52.182;4.474;2023-03-01T09:16:58;103090.09;;;4.38;86.27
72612;BME280;60655;52.182;4.474;2023-03-01T09:19:03;103100.53;;;4.51;86.27
72612;BME280;60655;52.182;4.474;2023-03-01T09:21:10;103086.16;;;4.44;86.14
72612;BME280;60655;52.182;4.474;2023-03-01T09:23:11;103090.13;;;4.61;86.64
72612;BME280;60655;52.182;4.474;2023-03-01T09:25:12;103099.22;;;4.57;86.47
72612;BME280;60655;52.182;4.474;2023-03-01T09:27:13;103084.47;;;4.65;86.85
72612;BME280;60655;52.182;4.474;2023-03-01T09:29:16;103084.44;;;4.77;86.29
72612;BME280;60655;52.182;4.474;2023-03-01T09:31:19;103084.22;;;4.80;86.35
72612;BME280;60655;52.182;4.474;2023-03-01T09:33:20;103083.91;;;4.94;87.06
72612;BME280;60655;52.182;4.474;2023-03-01T09:35:21;103086.44;;;4.95;86.33
72612;BME280;60655;52.182;4.474;2023-03-01T09:37:23;103081.56;;;4.91;86.46
72612;BME280;60655;52.182;4.474;2023-03-01T09:39:24;103075.34;;;4.81;85.59
72612;BME280;60655;52.182;4.474;2023-03-01T09:41:44;103077.28;;;4.79;85.37
72612;BME280;60655;52.182;4.474;2023-03-01T09:43:49;103083.47;;;4.89;84.90
72612;BME280;60655;52.182;4.474;2023-03-01T09:45:55;103079.25;;;4.97;85.28
72612;BME280;60655;52.182;4.474;2023-03-01T09:48:00;103059.72;;;5.00;85.71
72612;BME280;60655;52.182;4.474;2023-03-01T09:50:12;103073.72;;;5.00;85.32
72612;BME280;60655;52.182;4.474;2023-03-01T09:52:29;103059.72;;;5.00;85.21
72612;BME280;60655;52.182;4.474;2023-03-01T09:54:34;103065.88;;;5.21;85.21
72612;BME280;60655;52.182;4.474;2023-03-01T09:56:56;103055.00;;;5.15;84.61
72612;BME280;60655;52.182;4.474;2023-03-01T10:01:27;103063.63;;;5.17;83.79
72612;BME280;60655;52.182;4.474;2023-03-01T10:03:38;103063.50;;;5.18;83.97
72612;BME280;60655;52.182;4.474;2023-03-01T10:12:33;103067.75;;;5.30;83.06
72612;BME280;60655;52.182;4.474;2023-03-01T10:15:04;103056.28;;;5.20;82.08
72612;BME280;60655;52.182;4.474;2023-03-01T10:17:56;103051.66;;;5.13;82.14
72612;BME280;60655;52.182;4.474;2023-03-01T10:19:49;103056.25;;;5.31;82.89
72612;BME280;60655;52.182;4.474;2023-03-01T10:21:51;103039.59;;;5.31;81.58
72612;BME280;60655;52.182;4.474;2023-03-01T10:23:53;103043.41;;;5.38;82.78
72612;BME280;60655;52.182;4.474;2023-03-01T10:30:41;103028.19;;;5.41;81.99
72612;BME280;60655;52.182;4.474;2023-03-01T10:32:44;103035.84;;;5.45;82.16
72612;BME280;60655;52.182;4.474;2023-03-01T10:34:45;103029.06;;;5.52;80.00
72612;BME280;60655;52.182;4.474;2023-03-01T10:36:51;103030.66;;;5.64;79.57
72612;BME280;60655;52.182;4.474;2023-03-01T10:38:57;103029.00;;;5.63;76.65
72612;BME280;60655;52.182;4.474;2023-03-01T10:41:04;103022.19;;;5.60;77.25
72612;BME280;60655;52.182;4.474;2023-03-01T10:43:06;103020.97;;;5.64;76.74
72612;BME280;60655;52.182;4.474;2023-03-01T10:45:31;103023.25;;;5.78;77.14
72612;BME280;60655;52.182;4.474;2023-03-01T10:47:32;103014.06;;;5.94;77.60
72612;BME280;60655;52.182;4.474;2023-03-01T10:49:35;103017.59;;;5.83;77.95
72612;BME280;60655;52.182;4.474;2023-03-01T10:51:36;103005.81;;;5.87;77.45
72612;BME280;60655;52.182;4.474;2023-03-01T10:53:41;103012.84;;;5.77;73.87
72612;BME280;60655;52.182;4.474;2023-03-01T10:55:43;103002.69;;;5.72;70.32
72612;BME280;60655;52.182;4.474;2023-03-01T10:57:44;103001.41;;;5.67;72.76
72612;BME280;60655;52.182;4.474;2023-03-01T10:59:45;103001.19;;;5.80;72.84
72612;BME280;60655;52.182;4.474;2023-03-01T11:02:09;103004.56;;;5.61;72.19
72612;BME280;60655;52.182;4.474;2023-03-01T11:04:13;102989.28;;;5.85;73.28
72612;BME280;60655;52.182;4.474;2023-03-01T11:06:21;103006.47;;;6.00;75.04
72612;BME280;60655;52.182;4.474;2023-03-01T11:08:49;102997.19;;;6.06;74.31
72612;BME280;60655;52.182;4.474;2023-03-01T11:10:51;102995.34;;;6.06;69.29
72612;BME280;60655;52.182;4.474;2023-03-01T11:12:52;102993.47;;;6.18;73.56
72612;BME280;60655;52.182;4.474;2023-03-01T11:14:54;102987.09;;;6.21;71.77
72612;BME280;60655;52.182;4.474;2023-03-01T11:17:29;102981.13;;;6.28;73.26
72612;BME280;60655;52.182;4.474;2023-03-01T11:19:30;102990.75;;;5.99;71.93
72612;BME280;60655;52.182;4.474;2023-03-01T11:21:33;102979.59;;;6.26;71.61
72612;BME280;60655;52.182;4.474;2023-03-01T11:23:37;102986.47;;;6.57;72.41